Time;durP1;ratioP1;P1;durP2;ratioP2;P2;SDS_P1;SDS_P2;PMS_P1;PMS_P2;Temp;Humidity;BMP_temperature;BMP_pressure;BME280_temperature;BME280_humidity;BME280_pressure;Samples;Min_cycle;Max_cycle;Signal;HPM_P1;HPM_P2
2022/11/19 00:01:33;;;;;;;1.52;1.42;;;;;;;;;;5106763;27;44083;-57
2022/11/19 00:04:01;;;;;;;1.38;1.30;;;;;;;;;;5106922;27;43778;-57
2022/11/19 00:06:28;;;;;;;1.92;1.40;;;;;;;;;;5106249;27;43378;-57
2022/11/19 00:08:56;;;;;;;1.50;1.40;;;;;;;;;;5110846;27;43672;-57
2022/11/19 00:14:13;;;;;;;1.58;1.48;;;;;;;;;;5105642;27;43470;-57
2022/11/19 00:16:42;;;;;;;1.50;1.40;;;;;;;;;;5106654;27;43413;-57
2022/11/19 00:19:11;;;;;;;1.45;1.45;;;;;;;;;;5105387;27;43540;-57
2022/11/19 00:21:39;;;;;;;1.58;1.48;;;;;;;;;;5110173;27;45114;-57
2022/11/19 00:24:09;;;;;;;1.50;1.40;;;;;;;;;;5099108;27;43782;-57
2022/11/19 00:26:37;;;;;;;1.30;1.20;;;;;;;;;;5106315;27;43378;-57
2022/11/19 00:29:04;;;;;;;1.60;1.50;;;;;;;;;;5106042;27;43446;-57
2022/11/19 00:31:32;;;;;;;1.40;1.30;;;;;;;;;;5106675;27;44947;-57
2022/11/19 00:34:00;;;;;;;1.65;1.55;;;;;;;;;;5105497;27;43623;-57
2022/11/19 00:36:28;;;;;;;1.75;1.65;;;;;;;;;;5106205;27;43394;-57
2022/11/19 00:38:56;;;;;;;1.60;1.50;;;;;;;;;;5104737;27;43442;-57
2022/11/19 00:41:23;;;;;;;1.58;1.48;;;;;;;;;;5105679;27;44059;-57
2022/11/19 00:43:51;;;;;;;1.35;1.30;;;;;;;;;;5105927;27;43488;-57
2022/11/19 00:46:23;;;;;;;1.60;1.30;;;;;;;;;;5106077;27;43399;-57
2022/11/19 00:48:52;;;;;;;1.48;1.38;;;;;;;;;;5109524;27;43364;-57
2022/11/19 00:51:21;;;;;;;1.45;1.35;;;;;;;;;;5111202;27;44076;-57
2022/11/19 00:53:48;;;;;;;1.40;1.40;;;;;;;;;;5089530;27;46202;-57
2022/11/19 00:56:17;;;;;;;1.85;1.60;;;;;;;;;;5108880;27;43452;-57
2022/11/19 00:58:46;;;;;;;1.45;1.42;;;;;;;;;;5110502;27;43596;-58
2022/11/19 01:01:14;;;;;;;1.65;1.55;;;;;;;;;;5110118;27;43770;-57
2022/11/19 01:03:44;;;;;;;1.40;1.35;;;;;;;;;;5109379;27;43434;-57
2022/11/19 01:06:13;;;;;;;1.63;1.53;;;;;;;;;;5108704;27;43553;-57
2022/11/19 01:08:49;;;;;;;1.85;1.75;;;;;;;;;;5107379;27;43407;-57
2022/11/19 01:11:20;;;;;;;1.58;1.48;;;;;;;;;;5107645;27;44028;-57
2022/11/19 01:13:48;;;;;;;1.65;1.55;;;;;;;;;;5089255;27;44865;-57
2022/11/19 01:16:27;;;;;;;1.63;1.48;;;;;;;;;;5108162;27;43441;-57
2022/11/19 01:18:55;;;;;;;1.42;1.33;;;;;;;;;;5106445;27;43387;-58
2022/11/19 01:21:24;;;;;;;1.60;1.50;;;;;;;;;;5108323;27;43802;-57
2022/11/19 01:23:53;;;;;;;1.63;1.52;;;;;;;;;;5108168;27;43442;-57
2022/11/19 01:26:21;;;;;;;1.70;1.60;;;;;;;;;;5110555;27;43388;-57
2022/11/19 01:28:49;;;;;;;1.73;1.63;;;;;;;;;;5109832;27;43468;-57
2022/11/19 01:31:20;;;;;;;1.73;1.63;;;;;;;;;;5107790;27;44056;-57
2022/11/19 01:33:47;;;;;;;;;;;;;;;;;;5104302;27;43488;-57
2022/11/19 01:36:16;;;;;;;1.60;1.50;;;;;;;;;;5110042;27;43448;-57
2022/11/19 01:38:49;;;;;;;1.70;1.60;;;;;;;;;;5108521;27;43679;-57
2022/11/19 01:41:18;;;;;;;1.83;1.73;;;;;;;;;;5108231;27;44725;-57
2022/11/19 01:43:48;;;;;;;1.70;1.60;;;;;;;;;;5107959;27;44137;-57
2022/11/19 01:46:17;;;;;;;1.67;1.58;;;;;;;;;;5106158;27;43391;-57
2022/11/19 01:49:08;;;;;;;1.77;1.67;;;;;;;;;;5105157;27;43427;-57
2022/11/19 01:51:43;;;;;;;1.75;1.65;;;;;;;;;;5094608;27;44046;-57
2022/11/19 01:54:19;;;;;;;1.60;1.50;;;;;;;;;;5103389;27;44085;-57
2022/11/19 01:56:47;;;;;;;1.60;1.50;;;;;;;;;;5105184;27;43362;-57
2022/11/19 01:59:16;;;;;;;1.52;1.42;;;;;;;;;;5101203;27;43454;-57
2022/11/19 02:01:45;;;;;;;1.42;1.40;;;;;;;;;;5104796;27;44025;-57
2022/11/19 02:04:14;;;;;;;1.50;1.40;;;;;;;;;;5103846;27;43786;-57
2022/11/19 02:06:42;;;;;;;2.13;1.77;;;;;;;;;;5108204;27;43445;-57
2022/11/19 02:09:10;;;;;;;1.70;1.60;;;;;;;;;;5100469;27;43599;-57
2022/11/19 02:11:41;;;;;;;1.63;1.52;;;;;;;;;;5105449;27;44933;-57
2022/11/19 02:14:36;;;;;;;1.67;1.58;;;;;;;;;;5103976;27;43909;-57
2022/11/19 02:17:15;;;;;;;1.73;1.63;;;;;;;;;;5098946;27;43603;-57
2022/11/19 02:20:18;;;;;;;1.55;1.45;;;;;;;;;;5103740;27;43436;-57
2022/11/19 02:23:05;;;;;;;1.48;1.42;;;;;;;;;;4997632;28;43907;-57
2022/11/19 02:25:39;;;;;;;1.38;1.38;;;;;;;;;;5094080;27;43678;-57
2022/11/19 02:28:06;;;;;;;1.70;1.60;;;;;;;;;;5103642;27;43517;-57
2022/11/19 02:30:45;;;;;;;1.75;1.65;;;;;;;;;;5104258;27;43431;-57
2022/11/19 02:33:25;;;;;;;1.50;1.40;;;;;;;;;;5111844;27;43790;-57
2022/11/19 02:36:00;;;;;;;1.58;1.48;;;;;;;;;;5097638;27;43335;-57
2022/11/19 02:38:31;;;;;;;1.70;1.60;;;;;;;;;;5108791;27;43486;-57
2022/11/19 02:41:32;;;;;;;1.80;1.70;;;;;;;;;;5110618;27;43410;-57
2022/11/19 02:44:57;;;;;;;1.45;1.40;;;;;;;;;;5103687;27;43782;-57
2022/11/19 02:46:43;;;;;;;1.67;1.58;;;;;;;;;;5103335;27;43963;-57
2022/11/19 02:49:12;;;;;;;1.63;1.52;;;;;;;;;;5107018;27;43472;-57
2022/11/19 02:51:39;;;;;;;1.60;1.50;;;;;;;;;;5104132;27;43611;-57
2022/11/19 02:54:07;;;;;;;1.60;1.50;;;;;;;;;;5101836;27;44061;-57
2022/11/19 02:56:46;;;;;;;1.70;1.60;;;;;;;;;;5104607;27;43392;-57
2022/11/19 03:04:51;;;;;;;1.40;1.30;;;;;;;;;;5103449;27;43726;-57
2022/11/19 03:07:20;;;;;;;1.50;1.40;;;;;;;;;;5103785;27;43463;-58
2022/11/19 03:09:58;;;;;;;1.60;1.50;;;;;;;;;;5089747;27;43424;-57
2022/11/19 03:12:35;;;;;;;1.58;1.48;;;;;;;;;;5106486;27;43487;-57
2022/11/19 03:18:04;;;;;;;;;;;;;;;;;;5099212;27;43404;-57
2022/11/19 03:20:39;;;;;;;1.42;1.40;;;;;;;;;;5109617;27;43383;-57
2022/11/19 03:23:11;;;;;;;1.60;1.50;;;;;;;;;;5102080;27;43541;-57
2022/11/19 03:25:48;;;;;;;1.60;1.50;;;;;;;;;;5106046;27;44674;-57
2022/11/19 03:28:20;;;;;;;1.80;1.70;;;;;;;;;;5104471;27;43713;-57
2022/11/19 03:30:49;;;;;;;1.52;1.50;;;;;;;;;;5103497;27;43398;-57
2022/11/19 03:33:19;;;;;;;1.85;1.75;;;;;;;;;;5101064;27;43581;-57
2022/11/19 03:35:50;;;;;;;1.90;1.80;;;;;;;;;;5108060;27;44716;-57
2022/11/19 03:38:25;;;;;;;1.70;1.60;;;;;;;;;;5103528;27;44346;-57
2022/11/19 03:40:54;;;;;;;1.85;1.75;;;;;;;;;;5103538;27;43438;-57
2022/11/19 03:43:24;;;;;;;1.60;1.50;;;;;;;;;;5102722;27;43468;-56
2022/11/19 03:45:53;;;;;;;1.77;1.67;;;;;;;;;;5104195;27;43806;-57
2022/11/19 03:48:21;;;;;;;1.55;1.45;;;;;;;;;;5102664;27;43982;-57
2022/11/19 03:50:49;;;;;;;1.60;1.50;;;;;;;;;;5103225;27;43372;-57
2022/11/19 03:53:17;;;;;;;1.65;1.55;;;;;;;;;;5103182;27;43538;-57
2022/11/19 03:55:57;;;;;;;1.70;1.60;;;;;;;;;;5103957;27;43779;-57
2022/11/19 03:58:26;;;;;;;1.60;1.50;;;;;;;;;;5102357;27;43979;-57
2022/11/19 04:00:53;;;;;;;1.90;1.80;;;;;;;;;;5103090;27;43415;-57
2022/11/19 04:03:21;;;;;;;1.50;1.40;;;;;;;;;;5103332;27;43496;-56
2022/11/19 04:05:49;;;;;;;1.80;1.70;;;;;;;;;;5103776;27;45033;-57
2022/11/19 04:08:17;;;;;;;1.65;1.55;;;;;;;;;;5102542;27;43328;-56
2022/11/19 04:10:45;;;;;;;1.60;1.50;;;;;;;;;;5103417;27;43426;-57
2022/11/19 04:13:12;;;;;;;1.73;1.63;;;;;;;;;;5102327;27;43553;-57
2022/11/19 04:15:40;;;;;;;1.50;1.40;;;;;;;;;;5104981;27;43904;-57
2022/11/19 04:18:08;;;;;;;1.67;1.58;;;;;;;;;;5102994;27;43689;-57
2022/11/19 04:20:36;;;;;;;1.60;1.50;;;;;;;;;;5105196;27;43475;-57
2022/11/19 04:23:04;;;;;;;1.80;1.70;;;;;;;;;;5106513;27;43399;-57
2022/11/19 04:25:32;;;;;;;1.60;1.50;;;;;;;;;;5103642;27;43755;-57
2022/11/19 04:28:00;;;;;;;1.52;1.42;;;;;;;;;;5099266;27;43406;-57
2022/11/19 04:30:28;;;;;;;1.50;1.40;;;;;;;;;;5106273;27;43440;-56
2022/11/19 04:32:56;;;;;;;1.70;1.60;;;;;;;;;;5108882;27;43554;-57
2022/11/19 04:35:24;;;;;;;1.60;1.50;;;;;;;;;;5106369;27;44049;-57
2022/11/19 04:37:52;;;;;;;1.60;1.50;;;;;;;;;;5104557;27;43951;-57
2022/11/19 04:40:20;;;;;;;1.75;1.65;;;;;;;;;;5105653;27;43402;-57
2022/11/19 04:42:47;;;;;;;1.73;1.63;;;;;;;;;;5106463;27;43510;-57
2022/11/19 04:45:16;;;;;;;1.70;1.60;;;;;;;;;;5105325;27;44758;-57
2022/11/19 04:47:43;;;;;;;1.80;1.70;;;;;;;;;;5107659;27;43959;-57
2022/11/19 04:50:11;;;;;;;1.38;1.33;;;;;;;;;;5108636;27;43396;-57
2022/11/19 04:52:39;;;;;;;1.70;1.60;;;;;;;;;;5109803;27;43521;-57
2022/11/19 04:55:09;;;;;;;1.70;1.60;;;;;;;;;;5104912;27;44824;-57
2022/11/19 04:57:37;;;;;;;1.73;1.63;;;;;;;;;;5111106;27;43714;-57
2022/11/19 05:00:05;;;;;;;1.67;1.58;;;;;;;;;;5086622;27;43461;-57
2022/11/19 05:02:33;;;;;;;1.70;1.60;;;;;;;;;;5091966;27;43609;-57
2022/11/19 05:05:01;;;;;;;1.80;1.70;;;;;;;;;;5111132;27;44016;-57
2022/11/19 05:07:29;;;;;;;1.70;1.60;;;;;;;;;;5110171;27;44054;-57
2022/11/19 05:09:57;;;;;;;1.60;1.50;;;;;;;;;;5110420;27;43523;-57
2022/11/19 05:12:25;;;;;;;1.67;1.58;;;;;;;;;;5114362;27;43620;-57
2022/11/19 05:14:52;;;;;;;1.73;1.63;;;;;;;;;;5109528;27;45003;-57
2022/11/19 05:17:20;;;;;;;1.83;1.73;;;;;;;;;;5113821;27;43485;-57
2022/11/19 05:19:48;;;;;;;1.45;1.45;;;;;;;;;;5104738;27;43408;-57
2022/11/19 05:22:16;;;;;;;1.67;1.58;;;;;;;;;;5109512;27;43624;-57
2022/11/19 05:24:43;;;;;;;1.60;1.50;;;;;;;;;;5112224;27;44060;-57
2022/11/19 05:27:11;;;;;;;1.60;1.50;;;;;;;;;;5106812;27;43430;-57
2022/11/19 05:29:39;;;;;;;1.63;1.52;;;;;;;;;;5108299;27;43479;-57
2022/11/19 05:32:07;;;;;;;1.60;1.50;;;;;;;;;;5107656;27;43431;-57
2022/11/19 05:34:35;;;;;;;1.50;1.40;;;;;;;;;;5108501;27;44827;-57
2022/11/19 05:37:03;;;;;;;1.65;1.55;;;;;;;;;;5108250;27;43442;-57
2022/11/19 05:39:31;;;;;;;1.80;1.70;;;;;;;;;;5086675;27;43456;-57
2022/11/19 05:41:58;;;;;;;1.58;1.40;;;;;;;;;;5114162;27;43435;-57
2022/11/19 05:44:26;;;;;;;1.90;1.80;;;;;;;;;;5108870;27;44702;-57
2022/11/19 05:46:55;;;;;;;1.70;1.60;;;;;;;;;;5108561;27;43953;-57
2022/11/19 05:49:23;;;;;;;1.38;1.38;;;;;;;;;;5104601;27;43450;-57
2022/11/19 05:51:51;;;;;;;1.30;1.30;;;;;;;;;;5105060;27;43468;-57
2022/11/19 05:54:20;;;;;;;1.75;1.65;;;;;;;;;;5104797;27;45076;-57
2022/11/19 05:56:48;;;;;;;1.92;1.83;;;;;;;;;;5108426;27;43822;-57
2022/11/19 05:59:15;;;;;;;1.70;1.60;;;;;;;;;;5107713;27;44034;-57
2022/11/19 06:01:44;;;;;;;2.28;2.00;;;;;;;;;;5109502;27;43593;-57
2022/11/19 06:04:12;;;;;;;2.00;1.80;;;;;;;;;;5102599;27;46112;-57
2022/11/19 06:06:40;;;;;;;1.50;1.40;;;;;;;;;;5104734;27;44174;-57
2022/11/19 06:09:08;;;;;;;1.40;1.40;;;;;;;;;;5101732;27;43490;-57
2022/11/19 06:11:49;;;;;;;1.60;1.50;;;;;;;;;;5105544;27;43473;-57
2022/11/19 06:14:19;;;;;;;1.67;1.58;;;;;;;;;;5098069;27;44718;-57
2022/11/19 06:16:47;;;;;;;1.70;1.60;;;;;;;;;;5105116;27;43403;-57
2022/11/19 06:19:14;;;;;;;1.40;1.40;;;;;;;;;;5110427;27;44017;-57
2022/11/19 06:21:43;;;;;;;1.75;1.65;;;;;;;;;;5099932;27;43560;-57
2022/11/19 06:24:11;;;;;;;1.50;1.40;;;;;;;;;;5103538;27;43875;-57
2022/11/19 06:26:39;;;;;;;1.75;1.65;;;;;;;;;;5107051;27;44003;-57
2022/11/19 06:29:07;;;;;;;1.70;1.60;;;;;;;;;;5105124;27;43463;-57
2022/11/19 06:31:35;;;;;;;1.80;1.70;;;;;;;;;;5108944;27;44065;-57
2022/11/19 06:34:03;;;;;;;1.83;1.73;;;;;;;;;;5103470;27;44969;-57
2022/11/19 06:36:31;;;;;;;1.80;1.70;;;;;;;;;;5103827;27;43714;-57
2022/11/19 06:39:06;;;;;;;1.85;1.75;;;;;;;;;;5103819;27;43456;-57
2022/11/19 06:41:35;;;;;;;1.70;1.60;;;;;;;;;;5096940;27;43610;-57
2022/11/19 06:44:03;;;;;;;1.80;1.70;;;;;;;;;;5100276;27;44071;-57
2022/11/19 06:46:31;;;;;;;1.80;1.70;;;;;;;;;;5104381;27;43823;-57
2022/11/19 06:48:59;;;;;;;1.80;1.70;;;;;;;;;;5081825;27;43501;-57
2022/11/19 06:51:26;;;;;;;1.60;1.50;;;;;;;;;;5103899;27;43559;-57
2022/11/19 06:53:54;;;;;;;1.70;1.60;;;;;;;;;;5105013;27;43795;-56
2022/11/19 06:56:22;;;;;;;1.70;1.60;;;;;;;;;;5101843;27;43959;-57
2022/11/19 06:58:50;;;;;;;1.90;1.80;;;;;;;;;;5102849;27;43436;-57
2022/11/19 07:01:18;;;;;;;1.70;1.60;;;;;;;;;;5103900;27;43663;-57
2022/11/19 07:03:45;;;;;;;1.90;1.80;;;;;;;;;;5104283;27;44074;-56
2022/11/19 07:06:13;;;;;;;1.85;1.75;;;;;;;;;;5103724;27;43702;-57
2022/11/19 07:08:41;;;;;;;1.90;1.80;;;;;;;;;;5099887;27;43449;-57
2022/11/19 07:11:27;;;;;;;1.80;1.70;;;;;;;;;;5101418;27;43459;-57
2022/11/19 07:13:58;;;;;;;1.60;1.50;;;;;;;;;;5104905;27;44082;-56
2022/11/19 07:16:28;;;;;;;1.92;1.83;;;;;;;;;;5100406;27;43844;-57
2022/11/19 07:18:56;;;;;;;1.70;1.60;;;;;;;;;;5108124;27;43399;-57
2022/11/19 07:21:24;;;;;;;1.95;1.85;;;;;;;;;;5103524;27;43584;-58
2022/11/19 07:23:52;;;;;;;1.60;1.50;;;;;;;;;;5107828;27;44707;-57
2022/11/19 07:26:20;;;;;;;1.77;1.67;;;;;;;;;;5104882;27;43956;-57
2022/11/19 07:28:48;;;;;;;1.83;1.73;;;;;;;;;;5103205;27;43473;-57
2022/11/19 07:31:15;;;;;;;1.50;1.50;;;;;;;;;;5104261;27;43620;-57
2022/11/19 07:33:43;;;;;;;1.70;1.60;;;;;;;;;;5107907;27;44788;-57
2022/11/19 07:36:12;;;;;;;1.48;1.48;;;;;;;;;;5102937;27;43656;-57
2022/11/19 07:38:45;;;;;;;1.58;1.48;;;;;;;;;;5100249;27;43445;-57
2022/11/19 07:44:00;;;;;;;1.83;1.73;;;;;;;;;;5103636;27;44166;-57
2022/11/19 07:46:28;;;;;;;1.80;1.70;;;;;;;;;;5103439;27;43390;-57
2022/11/19 07:48:56;;;;;;;1.70;1.60;;;;;;;;;;5101963;27;43477;-57
2022/11/19 07:51:24;;;;;;;1.80;1.70;;;;;;;;;;5104336;27;43428;-58
2022/11/19 07:53:52;;;;;;;1.77;1.67;;;;;;;;;;5106992;27;43799;-56
2022/11/19 07:56:20;;;;;;;1.80;1.70;;;;;;;;;;5111249;27;43696;-57
2022/11/19 07:58:48;;;;;;;1.60;1.50;;;;;;;;;;5109161;27;43438;-58
2022/11/19 08:01:17;;;;;;;1.50;1.40;;;;;;;;;;5101235;27;43435;-58
2022/11/19 08:03:46;;;;;;;2.00;1.70;;;;;;;;;;5106804;27;44025;-57
2022/11/19 08:06:21;;;;;;;3.22;1.98;;;;;;;;;;5100693;27;44022;-58
2022/11/19 08:08:49;;;;;;;2.13;1.55;;;;;;;;;;5105384;27;43483;-57
2022/11/19 08:11:17;;;;;;;2.65;1.60;;;;;;;;;;5103546;27;43442;-57
2022/11/19 08:13:45;;;;;;;2.28;1.70;;;;;;;;;;5106698;27;44719;-57
2022/11/19 08:18:10;;;;;;;2.95;1.50;;;;;;;;;;5106448;27;43597;-59
2022/11/19 08:19:03;;;;;;;1.50;1.40;;;;;;;;;;5107266;27;43460;-57
2022/11/19 08:21:30;;;;;;;1.77;1.67;;;;;;;;;;5100250;27;44010;-57
2022/11/19 08:23:58;;;;;;;1.80;1.70;;;;;;;;;;5097749;27;44402;-59
2022/11/19 08:26:26;;;;;;;1.77;1.60;;;;;;;;;;5105970;27;43411;-58
2022/11/19 08:28:54;;;;;;;1.90;1.80;;;;;;;;;;5112119;27;43446;-59
2022/11/19 08:31:21;;;;;;;1.60;1.50;;;;;;;;;;5105176;27;43556;-57
2022/11/19 08:33:49;;;;;;;1.95;1.70;;;;;;;;;;5105903;27;43803;-57
2022/11/19 08:36:17;;;;;;;1.58;1.48;;;;;;;;;;5101536;27;43459;-57
2022/11/19 08:38:45;;;;;;;1.60;1.50;;;;;;;;;;5115006;27;43398;-57
2022/11/19 08:44:00;;;;;;;1.80;1.70;;;;;;;;;;5101985;27;45018;-59
2022/11/19 08:46:28;;;;;;;1.60;1.50;;;;;;;;;;5104223;27;43353;-60
2022/11/19 08:48:56;;;;;;;1.60;1.50;;;;;;;;;;5105625;27;43444;-60
2022/11/19 08:51:24;;;;;;;1.50;1.40;;;;;;;;;;5107305;27;43680;-59
2022/11/19 08:53:52;;;;;;;1.60;1.50;;;;;;;;;;5107914;27;44674;-59
2022/11/19 08:56:20;;;;;;;1.63;1.52;;;;;;;;;;5085051;27;44688;-59
2022/11/19 08:58:48;;;;;;;1.80;1.63;;;;;;;;;;5110817;27;43553;-59
2022/11/19 09:01:17;;;;;;;1.63;1.50;;;;;;;;;;5104927;27;43459;-59
2022/11/19 09:03:45;;;;;;;1.77;1.42;;;;;;;;;;5105140;27;44953;-60
2022/11/19 09:06:13;;;;;;;3.08;1.95;;;;;;;;;;5107686;27;43501;-58
2022/11/19 09:08:41;;;;;;;2.05;1.60;;;;;;;;;;5105943;27;43474;-58
2022/11/19 09:11:10;;;;;;;1.90;1.70;;;;;;;;;;5101739;27;43526;-58
2022/11/19 09:13:38;;;;;;;1.90;1.80;;;;;;;;;;5087717;27;43810;-58
2022/11/19 09:16:06;;;;;;;1.60;1.50;;;;;;;;;;5107448;27;43478;-59
2022/11/19 09:18:37;;;;;;;1.80;1.70;;;;;;;;;;5108224;27;43482;-58
2022/11/19 09:21:06;;;;;;;1.88;1.77;;;;;;;;;;5106782;27;43515;-58
2022/11/19 09:23:34;;;;;;;3.78;1.65;;;;;;;;;;5103423;27;44641;-58
2022/11/19 09:26:09;;;;;;;1.60;1.50;;;;;;;;;;5108731;27;43786;-58
2022/11/19 09:28:37;;;;;;;1.70;1.60;;;;;;;;;;5105420;27;43462;-59
2022/11/19 09:31:06;;;;;;;1.95;1.85;;;;;;;;;;5106258;27;43501;-58
2022/11/19 09:33:35;;;;;;;2.00;1.90;;;;;;;;;;5103896;27;43890;-58
2022/11/19 09:36:04;;;;;;;1.70;1.60;;;;;;;;;;5109377;27;43479;-58
2022/11/19 09:38:33;;;;;;;1.88;1.70;;;;;;;;;;5101861;27;43496;-58
2022/11/19 09:41:12;;;;;;;1.70;1.60;;;;;;;;;;5107928;27;43501;-58
2022/11/19 09:43:40;;;;;;;2.38;1.63;;;;;;;;;;5107344;27;43793;-58
2022/11/19 09:46:20;;;;;;;1.95;1.83;;;;;;;;;;5110429;27;43460;-58
2022/11/19 09:48:49;;;;;;;1.90;1.80;;;;;;;;;;5103866;27;43455;-58
2022/11/19 09:51:21;;;;;;;2.05;1.80;;;;;;;;;;5104334;27;43502;-59
2022/11/19 09:53:55;;;;;;;1.80;1.70;;;;;;;;;;5105658;27;44069;-58
2022/11/19 09:56:26;;;;;;;2.72;1.85;;;;;;;;;;5101955;27;43900;-58
2022/11/19 09:58:55;;;;;;;2.10;1.90;;;;;;;;;;5103508;27;43389;-58
2022/11/19 10:01:24;;;;;;;1.92;1.73;;;;;;;;;;5104600;27;43516;-58
2022/11/19 10:03:53;;;;;;;2.05;1.85;;;;;;;;;;5103366;27;44949;-58
2022/11/19 10:06:22;;;;;;;1.73;1.50;;;;;;;;;;5104494;27;43670;-58
2022/11/19 10:09:01;;;;;;;2.58;1.98;;;;;;;;;;5101866;27;43500;-58
2022/11/19 10:11:29;;;;;;;2.33;1.83;;;;;;;;;;5098880;27;43600;-58
2022/11/19 10:14:03;;;;;;;2.85;1.90;;;;;;;;;;5087424;27;44736;-58
2022/11/19 10:16:48;;;;;;;2.67;2.10;;;;;;;;;;5104623;27;43688;-58
2022/11/19 10:19:35;;;;;;;9.45;2.78;;;;;;;;;;5101569;27;43449;-58
2022/11/19 10:22:09;;;;;;;5.05;2.38;;;;;;;;;;5104289;27;43510;-59
2022/11/19 10:24:37;;;;;;;3.03;2.05;;;;;;;;;;5102716;27;44415;-59
2022/11/19 10:27:11;;;;;;;3.72;2.30;;;;;;;;;;5104789;27;43452;-59
2022/11/19 10:29:39;;;;;;;5.28;2.42;;;;;;;;;;5104311;27;43612;-59
2022/11/19 10:32:22;;;;;;;5.07;2.75;;;;;;;;;;5102127;27;43584;-59
2022/11/19 10:34:51;;;;;;;5.20;2.60;;;;;;;;;;5104423;27;44993;-59
2022/11/19 10:37:22;;;;;;;4.57;2.40;;;;;;;;;;5104101;27;45074;-58
2022/11/19 10:39:53;;;;;;;4.22;2.40;;;;;;;;;;5103680;27;43417;-58
2022/11/19 10:42:20;;;;;;;;;;;;;;;;;;5104442;27;43604;-59
2022/11/19 10:44:54;;;;;;;6.20;2.85;;;;;;;;;;5104328;27;43992;-58
2022/11/19 10:47:22;;;;;;;5.28;2.75;;;;;;;;;;5104055;27;43677;-59
2022/11/19 10:49:53;;;;;;;4.05;2.80;;;;;;;;;;5104986;27;43396;-58
2022/11/19 10:52:24;;;;;;;3.92;2.65;;;;;;;;;;5106176;27;43480;-58
2022/11/19 10:54:56;;;;;;;2.70;2.50;;;;;;;;;;5109899;27;43719;-59
2022/11/19 10:57:24;;;;;;;3.30;2.77;;;;;;;;;;5087839;27;44116;-58
2022/11/19 10:59:53;;;;;;;3.35;2.50;;;;;;;;;;5106337;27;43384;-59
2022/11/19 11:02:30;;;;;;;3.47;2.72;;;;;;;;;;5106573;27;43626;-59
2022/11/19 11:05:04;;;;;;;3.17;2.60;;;;;;;;;;5104121;27;43999;-59
2022/11/19 11:07:44;;;;;;;5.28;2.75;;;;;;;;;;5105512;27;43718;-59
2022/11/19 11:10:27;;;;;;;4.75;2.60;;;;;;;;;;5105846;27;43426;-59
2022/11/19 11:15:45;;;;;;;3.63;2.33;;;;;;;;;;5106362;27;44710;-58
2022/11/19 11:18:14;;;;;;;4.65;2.63;;;;;;;;;;5104967;27;43950;-58
2022/11/19 11:20:46;;;;;;;3.30;2.50;;;;;;;;;;5108514;27;43499;-59
2022/11/19 11:23:18;;;;;;;3.50;2.58;;;;;;;;;;5104325;27;43490;-59
2022/11/19 11:26:04;;;;;;;4.38;2.47;;;;;;;;;;5099913;27;43906;-59
2022/11/19 11:28:32;;;;;;;3.78;2.40;;;;;;;;;;5103270;27;43407;-59
2022/11/19 11:31:05;;;;;;;3.70;2.55;;;;;;;;;;5106509;27;43425;-59
2022/11/19 11:33:34;;;;;;;3.55;2.38;;;;;;;;;;5103075;27;44002;-59
2022/11/19 11:36:08;;;;;;;4.20;2.55;;;;;;;;;;5101079;27;44965;-59
2022/11/19 11:38:41;;;;;;;2.92;2.10;;;;;;;;;;5096677;27;43972;-60
2022/11/19 11:41:10;;;;;;;3.70;2.42;;;;;;;;;;5097877;27;43424;-59
2022/11/19 11:44:01;;;;;;;2.72;2.15;;;;;;;;;;5103503;27;43573;-61
2022/11/19 11:46:41;;;;;;;2.38;2.17;;;;;;;;;;5094869;27;44335;-59
2022/11/19 11:49:19;;;;;;;3.10;2.33;;;;;;;;;;5078397;27;43523;-59
2022/11/19 11:51:54;;;;;;;2.67;2.15;;;;;;;;;;5079588;27;43471;-59
2022/11/19 11:54:22;;;;;;;3.22;2.20;;;;;;;;;;5099253;27;43615;-61
2022/11/19 11:56:50;;;;;;;3.13;2.20;;;;;;;;;;5094972;27;44385;-60
2022/11/19 11:59:22;;;;;;;2.45;2.15;;;;;;;;;;5092392;27;43432;-60
2022/11/19 12:02:00;;;;;;;3.35;2.40;;;;;;;;;;5098845;27;43479;-59
2022/11/19 12:04:29;;;;;;;2.53;2.05;;;;;;;;;;5095809;27;43535;-59
2022/11/19 12:06:57;;;;;;;3.38;2.13;;;;;;;;;;5095166;27;44064;-59
2022/11/19 12:09:33;;;;;;;2.35;1.80;;;;;;;;;;5095712;27;43501;-59
2022/11/19 12:12:08;;;;;;;2.10;1.90;;;;;;;;;;5094318;27;43419;-59
2022/11/19 12:14:36;;;;;;;2.72;2.10;;;;;;;;;;5099613;27;43468;-59
2022/11/19 12:17:06;;;;;;;2.25;1.80;;;;;;;;;;5097241;27;43778;-58
2022/11/19 12:19:45;;;;;;;3.03;2.13;;;;;;;;;;5096376;27;43626;-59
2022/11/19 12:22:39;;;;;;;2.08;1.67;;;;;;;;;;5091972;27;43509;-59
2022/11/19 12:25:07;;;;;;;2.47;1.92;;;;;;;;;;5049255;27;43463;-59
2022/11/19 12:27:55;;;;;;;1.80;1.70;;;;;;;;;;5095156;27;43813;-59
2022/11/19 12:30:24;;;;;;;2.08;1.80;;;;;;;;;;5095668;27;43473;-59
2022/11/19 12:32:57;;;;;;;1.90;1.73;;;;;;;;;;5092079;27;43505;-59
2022/11/19 12:35:30;;;;;;;2.13;1.70;;;;;;;;;;5096542;27;43550;-59
2022/11/19 12:38:01;;;;;;;1.80;1.70;;;;;;;;;;5093308;27;43804;-59
2022/11/19 12:40:37;;;;;;;1.80;1.65;;;;;;;;;;5099725;27;43480;-59
2022/11/19 12:43:27;;;;;;;3.50;1.88;;;;;;;;;;5095616;27;43469;-59
2022/11/19 12:45:54;;;;;;;2.20;1.92;;;;;;;;;;5097703;27;43506;-58
2022/11/19 12:48:55;;;;;;;2.05;1.90;;;;;;;;;;5082520;27;44892;-59
2022/11/19 12:51:31;;;;;;;1.88;1.70;;;;;;;;;;5071672;27;43692;-59
2022/11/19 12:53:59;;;;;;;1.95;1.70;;;;;;;;;;5085808;27;43522;-58
2022/11/19 12:56:27;;;;;;;1.73;1.63;;;;;;;;;;5084298;27;43420;-59
2022/11/19 12:59:02;;;;;;;2.03;1.77;;;;;;;;;;5081699;27;44855;-59
2022/11/19 13:01:32;;;;;;;2.15;1.60;;;;;;;;;;5084865;27;43533;-59
2022/11/19 13:04:33;;;;;;;1.98;1.75;;;;;;;;;;5084286;27;43518;-59
2022/11/19 13:07:01;;;;;;;2.53;1.90;;;;;;;;;;5038244;27;43521;-59
2022/11/19 13:09:34;;;;;;;1.50;1.40;;;;;;;;;;5084195;27;44070;-59
2022/11/19 13:12:07;;;;;;;2.03;1.70;;;;;;;;;;5084671;27;43508;-58
2022/11/19 13:14:43;;;;;;;1.70;1.60;;;;;;;;;;5085109;27;43395;-59
2022/11/19 13:17:17;;;;;;;6.45;1.75;;;;;;;;;;5085167;27;43442;-59
2022/11/19 13:19:48;;;;;;;2.47;1.48;;;;;;;;;;5084570;27;44698;-59
2022/11/19 13:22:17;;;;;;;1.58;1.48;;;;;;;;;;5082841;27;43785;-59
2022/11/19 13:24:49;;;;;;;2.30;1.60;;;;;;;;;;5084937;27;43412;-59
2022/11/19 13:27:19;;;;;;;2.78;2.10;;;;;;;;;;5085471;27;43447;-59
2022/11/19 13:29:52;;;;;;;1.92;1.60;;;;;;;;;;5084857;27;43954;-59
2022/11/19 13:32:46;;;;;;;2.28;1.60;;;;;;;;;;5084268;27;43528;-59
2022/11/19 13:35:26;;;;;;;2.15;1.65;;;;;;;;;;5080300;27;43454;-59
2022/11/19 13:37:59;;;;;;;3.63;1.85;;;;;;;;;;5086868;27;43472;-59
2022/11/19 13:40:30;;;;;;;3.45;1.83;;;;;;;;;;5080220;27;43571;-59
2022/11/19 13:46:11;;;;;;;1.63;1.52;;;;;;;;;;5082438;27;43426;-59
2022/11/19 13:48:41;;;;;;;1.60;1.50;;;;;;;;;;5097878;27;43577;-59
2022/11/19 13:51:17;;;;;;;3.35;1.50;;;;;;;;;;5104431;27;44033;-59
2022/11/19 13:53:46;;;;;;;2.35;1.75;;;;;;;;;;5105977;27;43475;-59
2022/11/19 13:56:16;;;;;;;3.75;1.60;;;;;;;;;;5104029;27;43500;-58
2022/11/19 13:58:46;;;;;;;1.70;1.57;;;;;;;;;;5089125;27;43550;-59
2022/11/19 14:01:13;;;;;;;1.58;1.35;;;;;;;;;;5088947;27;43792;-59
2022/11/19 14:04:17;;;;;;;2.25;1.50;;;;;;;;;;5107854;27;43786;-58
2022/11/19 14:06:48;;;;;;;1.48;1.38;;;;;;;;;;5013715;28;43438;-59
2022/11/19 14:09:28;;;;;;;1.67;1.58;;;;;;;;;;5087615;27;44074;-58
2022/11/19 14:12:31;;;;;;;1.98;1.42;;;;;;;;;;5107245;27;43993;-59
2022/11/19 14:26:40;;;;;;;2.58;1.38;;;;;;;;;;5099148;27;43392;-59
2022/11/19 14:29:26;;;;;;;1.95;1.70;;;;;;;;;;5105287;27;43413;-58
2022/11/19 14:32:05;;;;;;;3.58;1.33;;;;;;;;;;5097982;27;43557;-58
2022/11/19 14:34:35;;;;;;;2.25;1.48;;;;;;;;;;5106473;27;44047;-58
2022/11/19 14:37:10;;;;;;;1.65;1.40;;;;;;;;;;5104673;27;43460;-59
2022/11/19 14:39:40;;;;;;;2.20;1.38;;;;;;;;;;5087844;27;43517;-58
2022/11/19 14:42:19;;;;;;;1.50;1.40;;;;;;;;;;5110283;27;43390;-58
2022/11/19 14:45:06;;;;;;;1.42;1.20;;;;;;;;;;5105643;27;43811;-59
2022/11/19 14:47:37;;;;;;;1.35;1.10;;;;;;;;;;5104829;27;44004;-58
2022/11/19 14:50:23;;;;;;;2.90;1.42;;;;;;;;;;5103646;27;43488;-59
2022/11/19 14:52:53;;;;;;;1.40;1.23;;;;;;;;;;5104210;27;43526;-58
2022/11/19 14:55:32;;;;;;;1.25;1.20;;;;;;;;;;5098385;27;44694;-59
2022/11/19 14:58:02;;;;;;;1.55;1.33;;;;;;;;;;5107090;27;43994;-59
2022/11/19 15:00:31;;;;;;;2.50;1.27;;;;;;;;;;5111326;27;43512;-58
2022/11/19 15:03:00;;;;;;;1.42;1.30;;;;;;;;;;5109964;27;43664;-58
2022/11/19 15:05:41;;;;;;;1.70;1.60;;;;;;;;;;5109529;27;44091;-58
2022/11/19 15:08:18;;;;;;;1.40;1.30;;;;;;;;;;5107831;27;43390;-58
2022/11/19 15:10:48;;;;;;;1.48;1.30;;;;;;;;;;5111039;27;43446;-58
2022/11/19 15:13:27;;;;;;;1.35;1.23;;;;;;;;;;5102526;27;43585;-58
2022/11/19 15:16:02;;;;;;;1.27;1.17;;;;;;;;;;5099519;27;44041;-58
2022/11/19 15:18:39;;;;;;;2.15;1.13;;;;;;;;;;5109369;27;43496;-58
2022/11/19 15:21:17;;;;;;;1.85;1.48;;;;;;;;;;5106477;27;43432;-59
2022/11/19 15:23:45;;;;;;;1.50;1.40;;;;;;;;;;5103030;27;43508;-59
2022/11/19 15:26:13;;;;;;;1.70;1.52;;;;;;;;;;5099950;27;44884;-59
2022/11/19 15:28:48;;;;;;;3.60;1.38;;;;;;;;;;5090465;27;43626;-59
2022/11/19 15:31:16;;;;;;;2.20;1.27;;;;;;;;;;5104881;27;43453;-59
2022/11/19 15:34:02;;;;;;;1.70;1.50;;;;;;;;;;5078321;27;43562;-59
2022/11/19 15:36:32;;;;;;;1.40;1.30;;;;;;;;;;5100021;27;44024;-58
2022/11/19 15:39:13;;;;;;;1.92;1.23;;;;;;;;;;5108761;27;43536;-59
2022/11/19 15:41:59;;;;;;;3.42;1.27;;;;;;;;;;5098327;27;43466;-59
2022/11/19 15:44:36;;;;;;;1.70;1.50;;;;;;;;;;5105525;27;43501;-58